Time;durP1;ratioP1;P1;durP2;ratioP2;P2;SDS_P1;SDS_P2;PMS_P1;PMS_P2;Temp;Humidity;BMP_temperature;BMP_pressure;BME280_temperature;BME280_humidity;BME280_pressure;Samples;Min_cycle;Max_cycle;Signal;HPM_P1;HPM_P2
2023/09/16 00:00:37;;;;;;;8.85;3.35;;;20.50;93.40;;;;;;4247682;27;20099;-53
2023/09/16 00:02:39;;;;;;;5.97;3.33;;;20.50;93.50;;;;;;4247617;27;20047;-53
2023/09/16 00:04:42;;;;;;;5.10;2.88;;;20.50;93.60;;;;;;4247921;27;20071;-54
2023/09/16 00:06:44;;;;;;;3.50;2.95;;;20.50;93.70;;;;;;4247998;27;20055;-55
2023/09/16 00:08:46;;;;;;;6.28;3.30;;;20.50;93.60;;;;;;4248387;27;20122;-54
2023/09/16 00:10:49;;;;;;;5.70;3.10;;;20.50;93.70;;;;;;4247947;27;20432;-53
2023/09/16 00:12:52;;;;;;;6.82;3.30;;;20.40;93.80;;;;;;4247783;27;20435;-53
2023/09/16 00:14:54;;;;;;;6.38;2.60;;;20.40;93.90;;;;;;4247720;27;20051;-54
2023/09/16 00:17:00;;;;;;;5.60;2.90;;;20.40;94.00;;;;;;4247473;27;20118;-54
2023/09/16 00:19:03;;;;;;;5.28;2.95;;;20.30;94.00;;;;;;4247899;27;20122;-53
2023/09/16 00:21:05;;;;;;;8.35;2.83;;;20.40;94.40;;;;;;4247775;27;20051;-53
2023/09/16 00:23:07;;;;;;;4.03;2.58;;;20.30;94.00;;;;;;4247708;27;20477;-53
2023/09/16 00:25:10;;;;;;;6.40;2.88;;;20.30;94.00;;;;;;4229482;28;20047;-52
2023/09/16 00:27:12;;;;;;;7.28;2.85;;;20.30;94.00;;;;;;4247669;27;20416;-57
2023/09/16 00:29:16;;;;;;;4.57;2.53;;;20.30;93.80;;;;;;4247865;27;20078;-53
2023/09/16 00:31:18;;;;;;;5.35;2.95;;;20.30;94.00;;;;;;4247331;27;20078;-53
2023/09/16 00:33:20;;;;;;;5.63;2.95;;;20.30;93.90;;;;;;4247330;27;20499;-52
2023/09/16 00:35:22;;;;;;;4.45;2.85;;;20.30;93.90;;;;;;4247472;27;20143;-53
2023/09/16 00:37:24;;;;;;;6.18;3.08;;;20.30;93.80;;;;;;4247719;27;20131;-53
2023/09/16 00:39:26;;;;;;;8.07;3.00;;;20.30;93.60;;;;;;4247299;27;20043;-53
2023/09/16 00:41:29;;;;;;;7.30;2.83;;;20.30;93.50;;;;;;4247419;27;20040;-53
2023/09/16 00:43:31;;;;;;;4.53;2.70;;;20.20;93.60;;;;;;4247332;27;20054;-53
2023/09/16 00:45:35;;;;;;;5.78;2.80;;;20.20;93.50;;;;;;4247109;27;20051;-53
2023/09/16 00:47:39;;;;;;;5.80;2.67;;;20.20;93.50;;;;;;4247932;27;20047;-53
2023/09/16 00:49:43;;;;;;;8.82;3.42;;;20.10;93.50;;;;;;4247167;27;20461;-53
2023/09/16 00:51:45;;;;;;;9.75;3.47;;;20.10;93.50;;;;;;4247200;27;20043;-53
2023/09/16 00:53:48;;;;;;;7.25;2.85;;;20.10;93.40;;;;;;4247543;27;20469;-53
2023/09/16 00:55:51;;;;;;;4.63;2.60;;;20.10;93.40;;;;;;4247626;27;20047;-53
2023/09/16 00:57:56;;;;;;;5.13;2.80;;;20.10;93.40;;;;;;4247168;27;20503;-52
2023/09/16 00:59:58;;;;;;;5.13;2.58;;;20.10;93.40;;;;;;4247393;27;20047;-53
2023/09/16 01:02:03;;;;;;;4.30;2.95;;;20.10;93.40;;;;;;4247381;28;20069;-53
2023/09/16 01:04:07;;;;;;;4.28;2.95;;;20.00;93.60;;;;;;4247910;28;20055;-54
2023/09/16 01:06:16;;;;;;;6.00;2.80;;;20.10;93.70;;;;;;4230473;28;20084;-52
2023/09/16 01:08:18;;;;;;;5.93;2.60;;;20.10;93.60;;;;;;4247409;28;20096;-53
2023/09/16 01:10:20;;;;;;;5.57;2.95;;;20.10;93.70;;;;;;4247827;28;20147;-54
2023/09/16 01:12:22;;;;;;;9.63;3.00;;;20.00;93.90;;;;;;4247427;28;20055;-52
2023/09/16 01:14:25;;;;;;;5.15;2.97;;;20.00;93.70;;;;;;4246831;28;20444;-53
2023/09/16 01:16:36;;;;;;;8.50;3.00;;;20.00;93.70;;;;;;4247180;28;20039;-54
2023/09/16 01:18:46;;;;;;;9.00;3.40;;;20.00;93.70;;;;;;4247356;28;20412;-52
2023/09/16 01:20:49;;;;;;;9.60;3.22;;;20.00;93.80;;;;;;4247338;28;20053;-60
2023/09/16 01:22:52;;;;;;;7.85;3.05;;;20.00;93.70;;;;;;4247342;28;20054;-56
2023/09/16 01:24:55;;;;;;;6.47;3.25;;;19.90;93.90;;;;;;4247168;28;20126;-54
2023/09/16 01:26:59;;;;;;;5.13;2.88;;;19.90;93.90;;;;;;4228790;28;20039;-54
2023/09/16 01:29:01;;;;;;;6.60;3.08;;;19.90;94.10;;;;;;4246868;28;20047;-54
2023/09/16 01:31:06;;;;;;;5.00;3.00;;;19.90;94.10;;;;;;4247233;28;20043;-52
2023/09/16 01:33:16;;;;;;;7.90;3.00;;;19.90;94.30;;;;;;4247226;28;20067;-59
2023/09/16 01:35:21;;;;;;;6.20;2.95;;;19.90;94.10;;;;;;4247399;28;20126;-57
2023/09/16 01:37:25;;;;;;;4.13;3.13;;;19.90;94.10;;;;;;4248004;28;20389;-53
2023/09/16 01:39:32;;;;;;;6.18;3.15;;;19.90;94.10;;;;;;4247773;28;20092;-54
2023/09/16 01:41:37;;;;;;;6.10;3.30;;;19.90;94.10;;;;;;4229093;28;20142;-53
2023/09/16 01:43:41;;;;;;;4.80;3.15;;;19.90;94.20;;;;;;4247003;28;20061;-53
2023/09/16 01:45:44;;;;;;;6.43;3.00;;;19.90;94.20;;;;;;4247354;28;20054;-54
2023/09/16 01:47:47;;;;;;;8.35;3.35;;;19.90;94.40;;;;;;4247260;28;20077;-52
2023/09/16 01:49:50;;;;;;;6.50;2.90;;;19.80;94.70;;;;;;4246940;27;20051;-53
2023/09/16 01:51:52;;;;;;;5.05;2.92;;;19.80;94.90;;;;;;4249479;27;20078;-53
2023/09/16 01:53:54;;;;;;;7.78;3.17;;;19.80;94.90;;;;;;4250119;27;20058;-53
2023/09/16 01:55:56;;;;;;;4.75;3.00;;;19.80;94.60;;;;;;4250362;27;20043;-53
2023/09/16 01:57:59;;;;;;;4.97;3.53;;;19.70;94.70;;;;;;4231790;28;20047;-57
2023/09/16 02:00:05;;;;;;;7.85;3.40;;;19.70;94.60;;;;;;4249987;27;20039;-52
2023/09/16 02:02:08;;;;;;;5.70;2.95;;;19.70;94.70;;;;;;4249828;27;20123;-54
2023/09/16 02:04:10;;;;;;;6.38;3.10;;;19.70;94.70;;;;;;4249980;27;20043;-53
2023/09/16 02:06:12;;;;;;;4.40;3.05;;;19.70;94.70;;;;;;4231883;28;20067;-53
2023/09/16 02:08:14;;;;;;;4.88;2.60;;;19.70;94.80;;;;;;4250024;27;20081;-53
2023/09/16 02:10:16;;;;;;;7.82;3.20;;;19.70;94.90;;;;;;4249755;27;20044;-55
2023/09/16 02:12:18;;;;;;;6.22;2.75;;;19.60;94.80;;;;;;4231278;28;20455;-53
2023/09/16 02:14:22;;;;;;;4.57;2.90;;;19.70;95.00;;;;;;4250099;27;20055;-54
2023/09/16 02:16:25;;;;;;;5.35;3.38;;;19.70;94.90;;;;;;4250011;27;20465;-53
2023/09/16 02:18:27;;;;;;;8.25;3.60;;;19.60;95.00;;;;;;4249751;27;20092;-53
2023/09/16 02:20:29;;;;;;;6.97;3.08;;;19.60;95.00;;;;;;4249850;27;20043;-59
2023/09/16 02:22:31;;;;;;;12.55;3.47;;;19.60;95.00;;;;;;4249709;27;20237;-54
2023/09/16 02:24:34;;;;;;;5.03;3.40;;;19.60;95.00;;;;;;4249746;27;20058;-54
2023/09/16 02:26:36;;;;;;;4.88;3.33;;;19.60;95.10;;;;;;4249390;27;20043;-53
2023/09/16 02:28:40;;;;;;;12.77;4.38;;;19.60;95.10;;;;;;4250070;27;20047;-52
2023/09/16 02:30:42;;;;;;;5.68;3.25;;;19.50;95.20;;;;;;4249657;27;20043;-53
2023/09/16 02:32:45;;;;;;;5.97;3.17;;;19.50;95.20;;;;;;4249315;27;20097;-53
2023/09/16 02:34:48;;;;;;;5.20;3.08;;;19.50;95.40;;;;;;4249454;27;20043;-53
2023/09/16 02:36:51;;;;;;;6.85;2.88;;;19.40;95.40;;;;;;4249097;27;20043;-53
2023/09/16 02:38:53;;;;;;;6.78;3.08;;;19.40;95.40;;;;;;4249193;27;20043;-53
2023/09/16 02:40:55;;;;;;;7.68;3.00;;;19.30;95.60;;;;;;4249320;27;20479;-53
2023/09/16 02:42:57;;;;;;;5.57;3.28;;;19.30;95.80;;;;;;4249068;27;20118;-52
2023/09/16 02:45:00;;;;;;;8.45;3.13;;;19.40;95.70;;;;;;4249219;27;20142;-53
2023/09/16 02:47:02;;;;;;;5.43;3.55;;;19.40;95.70;;;;;;4249092;27;20050;-53
2023/09/16 02:49:06;;;;;;;6.90;3.47;;;19.40;95.70;;;;;;4248929;27;20070;-53
2023/09/16 02:51:09;;;;;;;7.20;3.13;;;19.40;95.60;;;;;;4249104;27;20071;-53
2023/09/16 02:53:12;;;;;;;4.97;3.10;;;19.40;95.80;;;;;;4249213;27;20054;-53
2023/09/16 02:55:16;;;;;;;5.55;3.30;;;19.30;95.80;;;;;;4249075;27;20040;-54
2023/09/16 02:57:18;;;;;;;6.88;3.13;;;19.30;95.80;;;;;;4249217;27;20450;-53
2023/09/16 02:59:20;;;;;;;3.97;3.13;;;19.20;95.90;;;;;;4249199;27;20121;-53
2023/09/16 03:01:22;;;;;;;3.85;2.90;;;19.10;95.90;;;;;;4248576;27;20378;-54
2023/09/16 03:03:24;;;;;;;6.00;2.90;;;19.20;96.10;;;;;;4249391;27;20043;-53
2023/09/16 03:05:29;;;;;;;5.35;2.97;;;19.10;96.10;;;;;;4249001;27;20043;-53
2023/09/16 03:07:31;;;;;;;;;;;19.20;96.10;;;;;;4249603;27;20118;-53
2023/09/16 03:09:33;;;;;;;3.83;2.63;;;19.20;96.20;;;;;;4247927;27;19923;-55
2023/09/16 03:11:36;;;;;;;5.03;2.63;;;19.10;96.10;;;;;;4248578;27;20051;-53
2023/09/16 03:13:38;;;;;;;4.22;2.63;;;19.10;96.40;;;;;;4248611;27;20461;-53
2023/09/16 03:15:45;;;;;;;5.20;2.92;;;19.10;96.30;;;;;;4248625;27;20047;-53
2023/09/16 03:17:47;;;;;;;8.82;3.50;;;19.10;96.20;;;;;;4248505;27;20389;-54
2023/09/16 03:20:08;;;;;;;6.55;3.40;;;19.10;96.30;;;;;;4248931;27;20096;-54
2023/09/16 03:22:12;;;;;;;4.15;2.90;;;19.00;96.40;;;;;;4250004;27;20043;-53
2023/09/16 03:24:14;;;;;;;5.00;3.10;;;19.00;96.40;;;;;;4250194;27;20074;-54
2023/09/16 03:26:16;;;;;;;6.88;3.25;;;19.00;96.60;;;;;;4249579;27;20108;-53
2023/09/16 03:28:18;;;;;;;5.63;3.38;;;19.00;96.70;;;;;;4249472;27;20062;-52
2023/09/16 03:30:21;;;;;;;9.98;3.30;;;19.00;96.60;;;;;;4230491;28;20055;-52
2023/09/16 03:32:27;;;;;;;7.85;3.53;;;19.00;96.70;;;;;;4248525;27;20039;-53
2023/09/16 03:34:29;;;;;;;6.82;3.60;;;19.00;96.60;;;;;;4230613;28;20040;-54
2023/09/16 03:36:31;;;;;;;7.75;3.47;;;19.00;96.60;;;;;;4248729;27;20054;-53
2023/09/16 03:38:43;;;;;;;13.35;3.60;;;19.00;96.70;;;;;;4248453;27;20054;-52
2023/09/16 03:40:46;;;;;;;5.82;3.60;;;19.00;96.80;;;;;;4248133;27;20092;-52
2023/09/16 03:42:48;;;;;;;7.05;4.13;;;19.00;96.80;;;;;;4230203;28;20497;-53
2023/09/16 03:44:50;;;;;;;6.07;3.03;;;19.00;96.70;;;;;;4248216;27;20080;-53
2023/09/16 03:46:52;;;;;;;4.63;3.45;;;19.00;96.90;;;;;;4248113;27;20047;-53
2023/09/16 03:48:54;;;;;;;7.10;3.40;;;18.90;96.90;;;;;;4247930;27;20051;-53
2023/09/16 03:50:56;;;;;;;6.00;3.35;;;19.00;96.90;;;;;;4248102;27;20130;-52
2023/09/16 03:52:58;;;;;;;5.60;3.45;;;18.80;97.10;;;;;;4248090;27;20043;-53
2023/09/16 03:55:03;;;;;;;4.30;3.45;;;18.90;97.10;;;;;;4247961;27;20057;-53
2023/09/16 03:57:05;;;;;;;4.00;2.88;;;18.90;97.00;;;;;;4247433;27;20053;-52
2023/09/16 03:59:07;;;;;;;4.38;3.00;;;18.90;97.30;;;;;;4247910;27;20075;-52
2023/09/16 04:01:09;;;;;;;6.35;3.92;;;18.90;97.30;;;;;;4248068;27;20396;-53
2023/09/16 04:03:13;;;;;;;3.55;3.00;;;18.80;97.20;;;;;;4248007;27;20126;-53
2023/09/16 04:05:15;;;;;;;4.95;3.67;;;18.80;97.40;;;;;;4248161;27;20043;-55
2023/09/16 04:07:17;;;;;;;5.13;3.63;;;18.80;97.40;;;;;;4248367;27;20062;-53
2023/09/16 04:09:21;;;;;;;4.75;3.05;;;18.80;97.40;;;;;;4247573;27;20043;-51
2023/09/16 04:11:24;;;;;;;5.13;3.00;;;18.90;97.50;;;;;;4247755;27;20045;-52
2023/09/16 04:13:26;;;;;;;6.70;3.38;;;18.80;97.70;;;;;;4247354;27;20077;-54
2023/09/16 04:15:29;;;;;;;7.47;3.97;;;18.80;97.50;;;;;;4247797;27;20469;-56
2023/09/16 04:17:32;;;;;;;6.75;3.53;;;18.80;97.60;;;;;;4247783;27;20099;-54
2023/09/16 04:19:34;;;;;;;6.63;3.90;;;18.80;97.70;;;;;;4247874;27;20058;-52
2023/09/16 04:21:37;;;;;;;4.45;3.45;;;18.80;97.50;;;;;;4247503;27;20088;-53
2023/09/16 04:24:03;;;;;;;7.85;3.72;;;18.80;97.50;;;;;;4239764;27;20054;-53
2023/09/16 04:26:12;;;;;;;4.50;3.33;;;18.80;97.40;;;;;;4247881;27;20459;-52
2023/09/16 04:28:30;;;;;;;5.65;3.75;;;18.70;97.60;;;;;;4247541;27;20409;-52
2023/09/16 04:30:40;;;;;;;6.28;4.03;;;18.70;97.80;;;;;;4247531;27;20468;-54
2023/09/16 04:32:42;;;;;;;9.20;3.80;;;18.70;97.60;;;;;;4247666;27;20047;-53
2023/09/16 04:34:44;;;;;;;10.95;3.70;;;18.70;97.70;;;;;;4247693;27;20104;-53
2023/09/16 04:36:46;;;;;;;6.43;3.50;;;18.70;97.80;;;;;;4247874;27;20091;-57
2023/09/16 04:38:48;;;;;;;6.28;3.67;;;18.60;97.90;;;;;;4247099;27;20126;-53
2023/09/16 04:40:50;;;;;;;7.28;3.90;;;18.60;98.10;;;;;;4247280;27;20043;-52
2023/09/16 04:42:52;;;;;;;10.25;4.25;;;18.50;98.20;;;;;;4247646;27;20047;-52
2023/09/16 04:44:58;;;;;;;5.10;3.58;;;18.50;98.20;;;;;;4247376;27;20523;-53
2023/09/16 04:47:07;;;;;;;5.05;3.15;;;18.50;98.20;;;;;;4247540;27;20122;-53
2023/09/16 04:49:09;;;;;;;4.18;3.40;;;18.50;98.30;;;;;;4246924;27;20066;-52
2023/09/16 04:51:11;;;;;;;7.40;3.75;;;18.50;98.40;;;;;;4247517;27;20100;-53
2023/09/16 04:53:14;;;;;;;5.95;3.85;;;18.50;98.20;;;;;;4246990;27;20047;-56
2023/09/16 04:55:16;;;;;;;4.50;3.50;;;18.50;98.30;;;;;;4247563;27;20410;-52
2023/09/16 04:57:18;;;;;;;6.35;2.97;;;18.50;98.20;;;;;;4247168;27;20054;-53
2023/09/16 04:59:20;;;;;;;6.50;3.80;;;18.50;98.40;;;;;;4247168;27;20082;-53
2023/09/16 05:01:26;;;;;;;8.85;4.03;;;18.60;98.30;;;;;;4229133;28;20097;-53
2023/09/16 05:03:28;;;;;;;6.25;3.40;;;18.60;98.10;;;;;;4247339;28;20074;-53
2023/09/16 05:05:31;;;;;;;5.35;3.80;;;18.60;98.20;;;;;;4247097;28;20078;-53
2023/09/16 05:07:33;;;;;;;7.15;3.80;;;18.50;98.30;;;;;;4247184;28;20088;-52
2023/09/16 05:09:38;;;;;;;5.25;3.92;;;18.50;98.30;;;;;;4248629;28;20449;-54
2023/09/16 05:11:43;;;;;;;7.88;4.05;;;18.50;98.60;;;;;;4248594;28;20044;-53
2023/09/16 05:13:50;;;;;;;6.03;3.92;;;18.40;98.60;;;;;;4247654;28;20043;-54
2023/09/16 05:15:52;;;;;;;4.60;3.40;;;18.40;98.60;;;;;;4247351;28;20126;-53
2023/09/16 05:17:56;;;;;;;5.07;4.13;;;18.30;98.70;;;;;;4247871;28;20043;-53
2023/09/16 05:19:58;;;;;;;7.47;3.75;;;18.30;98.70;;;;;;4247235;28;20126;-55
2023/09/16 05:22:03;;;;;;;6.78;4.15;;;18.30;98.70;;;;;;4246876;28;20396;-54
2023/09/16 05:24:06;;;;;;;11.23;4.47;;;18.30;98.70;;;;;;4247525;27;20071;-53
2023/09/16 05:26:09;;;;;;;5.38;3.58;;;18.30;98.80;;;;;;4250553;27;20049;-53
2023/09/16 05:28:11;;;;;;;5.40;3.63;;;18.30;98.70;;;;;;4250412;27;20050;-53
2023/09/16 05:30:15;;;;;;;12.60;4.43;;;18.30;98.80;;;;;;4250333;27;20396;-53
2023/09/16 05:32:18;;;;;;;9.60;4.30;;;18.30;98.80;;;;;;4250620;27;20107;-56
2023/09/16 05:34:22;;;;;;;5.68;4.47;;;18.30;98.90;;;;;;4250335;27;20040;-52
2023/09/16 05:36:24;;;;;;;10.93;4.10;;;18.20;99.00;;;;;;4250056;27;20043;-56
2023/09/16 05:38:26;;;;;;;7.80;3.58;;;18.20;99.10;;;;;;4250719;27;20045;-54
2023/09/16 05:40:29;;;;;;;5.03;4.22;;;18.20;99.10;;;;;;4250398;27;20130;-57
2023/09/16 05:42:31;;;;;;;5.53;3.95;;;18.30;98.90;;;;;;4250431;27;20067;-54
2023/09/16 05:44:35;;;;;;;9.00;4.13;;;18.20;99.00;;;;;;4250604;27;20105;-52
2023/09/16 05:46:37;;;;;;;6.63;4.00;;;18.20;99.00;;;;;;4250619;27;20516;-54
2023/09/16 05:48:41;;;;;;;7.63;3.97;;;18.20;99.10;;;;;;4250994;27;20108;-54
2023/09/16 05:50:44;;;;;;;5.65;4.20;;;18.10;99.30;;;;;;4250649;27;20069;-57
2023/09/16 05:52:46;;;;;;;7.78;4.47;;;18.10;99.20;;;;;;4250521;27;20055;-53
2023/09/16 05:54:48;;;;;;;11.38;4.15;;;18.10;99.20;;;;;;4250346;27;20409;-54
2023/09/16 05:56:50;;;;;;;9.80;4.50;;;18.20;99.20;;;;;;4250169;27;20485;-53
2023/09/16 05:58:52;;;;;;;7.45;4.43;;;18.10;99.40;;;;;;4250526;27;20047;-53
2023/09/16 06:00:55;;;;;;;10.10;4.85;;;18.10;99.40;;;;;;4250118;27;20051;-53
2023/09/16 06:02:57;;;;;;;4.50;4.10;;;18.10;99.30;;;;;;4249794;27;20054;-53
2023/09/16 06:04:59;;;;;;;13.13;4.82;;;18.10;99.30;;;;;;4249586;27;20070;-53
2023/09/16 06:07:03;;;;;;;5.45;4.07;;;18.10;99.20;;;;;;4249705;27;20078;-53
2023/09/16 06:09:05;;;;;;;6.93;4.40;;;18.20;99.30;;;;;;4249929;27;20055;-53
2023/09/16 06:11:08;;;;;;;7.30;5.05;;;18.10;99.40;;;;;;4249980;27;20070;-52
2023/09/16 06:13:10;;;;;;;7.00;4.57;;;18.10;99.40;;;;;;4250091;27;20477;-53
2023/09/16 06:15:12;;;;;;;7.93;4.93;;;18.20;99.40;;;;;;4249726;27;20039;-52
2023/09/16 06:17:14;;;;;;;9.65;4.63;;;18.20;99.40;;;;;;4249859;27;20071;-52
2023/09/16 06:19:16;;;;;;;8.38;4.32;;;18.20;99.40;;;;;;4249692;27;20067;-53
2023/09/16 06:21:19;;;;;;;6.68;4.60;;;18.20;99.60;;;;;;4249805;27;20053;-53
2023/09/16 06:23:22;;;;;;;9.50;3.88;;;18.20;99.60;;;;;;4249532;27;20070;-52
2023/09/16 06:25:25;;;;;;;7.03;4.93;;;18.30;99.50;;;;;;4249570;27;20043;-52
2023/09/16 06:27:27;;;;;;;10.40;5.10;;;18.30;99.40;;;;;;4249819;27;20631;-52
2023/09/16 06:29:30;;;;;;;10.02;5.25;;;18.40;99.40;;;;;;4249861;27;20075;-52
2023/09/16 06:31:32;;;;;;;7.55;4.60;;;18.50;99.20;;;;;;4249790;27;20051;-52
2023/09/16 06:33:40;;;;;;;9.98;5.10;;;18.50;99.10;;;;;;4249466;27;20094;-53
2023/09/16 06:35:58;;;;;;;6.15;4.60;;;18.50;99.20;;;;;;4249587;27;20047;-53
2023/09/16 06:38:00;;;;;;;8.88;4.80;;;18.60;99.20;;;;;;4249435;27;20051;-51
2023/09/16 06:40:04;;;;;;;7.03;4.55;;;18.60;99.20;;;;;;4249603;27;20444;-53
2023/09/16 06:42:07;;;;;;;7.78;4.95;;;18.70;99.00;;;;;;4249657;27;20071;-53
2023/09/16 06:44:09;;;;;;;6.00;4.78;;;18.60;99.00;;;;;;4249491;27;20066;-51
2023/09/16 06:46:11;;;;;;;7.38;4.50;;;18.50;99.20;;;;;;4249443;27;20043;-59
2023/09/16 06:48:13;;;;;;;9.77;5.28;;;18.50;99.30;;;;;;4248938;27;20090;-54
2023/09/16 06:50:22;;;;;;;8.15;4.95;;;18.40;99.20;;;;;;4249556;27;20376;-52
2023/09/16 06:52:27;;;;;;;7.35;5.07;;;18.50;99.20;;;;;;4249809;27;20050;-54
2023/09/16 06:54:29;;;;;;;8.85;5.10;;;18.60;99.20;;;;;;4250378;27;20157;-53
2023/09/16 06:56:37;;;;;;;8.60;4.80;;;18.60;99.10;;;;;;4250243;27;20047;-52
2023/09/16 06:58:39;;;;;;;7.68;5.40;;;18.60;99.30;;;;;;4249516;27;20043;-52
2023/09/16 07:01:07;;;;;;;9.65;5.20;;;18.60;99.10;;;;;;4248960;27;20496;-53
2023/09/16 07:03:11;;;;;;;8.18;4.93;;;18.70;99.00;;;;;;4248901;27;20147;-53
2023/09/16 07:05:14;;;;;;;8.80;5.13;;;18.70;99.10;;;;;;4249648;27;20043;-53
2023/09/16 07:07:16;;;;;;;11.20;4.88;;;18.70;99.10;;;;;;4250175;27;20050;-59
2023/09/16 07:09:19;;;;;;;8.60;5.30;;;18.80;99.00;;;;;;4249405;27;20039;-52
2023/09/16 07:11:22;;;;;;;11.15;4.65;;;18.80;98.90;;;;;;4248970;27;20417;-53
2023/09/16 07:13:26;;;;;;;9.13;4.97;;;18.80;98.90;;;;;;4248998;27;20099;-53
2023/09/16 07:15:28;;;;;;;9.43;4.75;;;18.90;98.90;;;;;;4248983;27;20043;-54
2023/09/16 07:17:33;;;;;;;10.85;5.38;;;18.80;98.90;;;;;;4248371;27;20047;-53
2023/09/16 07:19:36;;;;;;;12.15;5.25;;;18.90;98.90;;;;;;4248682;27;20468;-53
2023/09/16 07:21:38;;;;;;;9.23;5.72;;;18.90;99.10;;;;;;4249113;27;20462;-53
2023/09/16 07:23:40;;;;;;;8.10;5.00;;;18.90;99.10;;;;;;4248852;27;20035;-53
2023/09/16 07:25:42;;;;;;;9.52;4.85;;;19.00;99.00;;;;;;4248862;27;20507;-51
2023/09/16 07:27:44;;;;;;;6.38;4.95;;;19.10;98.90;;;;;;4248734;27;20100;-52
2023/09/16 07:29:48;;;;;;;8.45;5.55;;;19.10;98.80;;;;;;4248799;27;20118;-53
2023/09/16 07:31:50;;;;;;;11.13;4.88;;;19.20;98.80;;;;;;4248098;27;20450;-52
2023/09/16 07:33:52;;;;;;;12.70;5.63;;;19.10;98.90;;;;;;4248402;27;20043;-52
2023/09/16 07:35:55;;;;;;;8.65;5.00;;;19.20;98.90;;;;;;4248502;27;20039;-53
2023/09/16 07:37:57;;;;;;;10.63;5.20;;;19.20;98.80;;;;;;4248445;27;20039;-53
2023/09/16 07:40:00;;;;;;;7.93;5.45;;;19.30;98.70;;;;;;4230023;28;20126;-53
2023/09/16 07:42:02;;;;;;;7.68;5.15;;;19.40;98.70;;;;;;4248160;27;20071;-53
2023/09/16 07:44:05;;;;;;;9.38;5.22;;;19.40;98.60;;;;;;4248213;27;20043;-53
2023/09/16 07:46:08;;;;;;;13.25;5.95;;;19.50;98.50;;;;;;4229820;28;20480;-53
2023/09/16 07:48:11;;;;;;;10.57;5.85;;;19.60;98.40;;;;;;4248151;27;20050;-53
2023/09/16 07:50:13;;;;;;;12.38;5.63;;;19.70;98.40;;;;;;4248096;27;20050;-54
2023/09/16 07:52:15;;;;;;;8.57;5.05;;;19.80;98.30;;;;;;4248195;27;20043;-54
2023/09/16 07:54:17;;;;;;;10.57;6.13;;;19.80;98.20;;;;;;4248293;27;20094;-55
2023/09/16 07:56:20;;;;;;;13.57;5.40;;;19.80;98.30;;;;;;4248553;27;20051;-54
2023/09/16 07:58:23;;;;;;;10.98;5.80;;;19.90;98.10;;;;;;4247946;27;20046;-53
2023/09/16 08:00:25;;;;;;;9.43;5.82;;;20.00;98.10;;;;;;4247894;27;20152;-53
2023/09/16 08:02:28;;;;;;;7.43;5.45;;;20.10;98.10;;;;;;4248236;27;20051;-53
2023/09/16 08:04:31;;;;;;;8.02;5.30;;;20.20;97.90;;;;;;4229747;28;20051;-53
2023/09/16 08:06:36;;;;;;;11.30;5.55;;;20.20;98.00;;;;;;4247960;27;20054;-53
2023/09/16 08:08:38;;;;;;;10.73;5.22;;;20.30;97.80;;;;;;4248093;27;20173;-57
2023/09/16 08:10:40;;;;;;;6.70;5.30;;;20.50;97.70;;;;;;4248439;27;20416;-53
2023/09/16 08:12:42;;;;;;;6.70;5.50;;;20.50;97.50;;;;;;4247580;27;20054;-52
2023/09/16 08:14:44;;;;;;;7.20;5.20;;;20.60;97.40;;;;;;4247566;27;20122;-52
2023/09/16 08:16:46;;;;;;;8.52;5.10;;;20.60;97.40;;;;;;4247723;27;20047;-52
2023/09/16 08:18:50;;;;;;;9.52;5.35;;;20.70;97.30;;;;;;4247915;27;20070;-52
2023/09/16 08:20:53;;;;;;;11.15;5.22;;;20.80;97.20;;;;;;4247690;27;20151;-52
2023/09/16 08:22:56;;;;;;;9.20;5.50;;;20.80;97.20;;;;;;4247577;27;20043;-53
2023/09/16 08:24:58;;;;;;;7.18;5.07;;;20.90;97.10;;;;;;4247623;27;20519;-60
2023/09/16 08:27:04;;;;;;;7.40;4.72;;;21.10;97.10;;;;;;4247490;27;20050;-55
2023/09/16 08:29:06;;;;;;;10.10;5.43;;;21.10;97.00;;;;;;4247346;27;20064;-58
2023/09/16 08:31:08;;;;;;;10.38;5.82;;;21.20;96.90;;;;;;4227227;28;20792;-53
2023/09/16 08:33:11;;;;;;;9.52;5.47;;;21.20;96.70;;;;;;4233465;27;20031;-52
2023/09/16 08:35:14;;;;;;;10.13;5.35;;;21.10;96.90;;;;;;4234294;27;20052;-53
2023/09/16 08:37:17;;;;;;;8.57;5.55;;;21.20;96.80;;;;;;4231564;27;20050;-54
2023/09/16 08:39:19;;;;;;;11.05;5.63;;;21.20;96.70;;;;;;4229890;28;20120;-53
2023/09/16 08:41:27;;;;;;;12.40;5.80;;;21.30;96.60;;;;;;4230523;28;20051;-55
2023/09/16 08:43:37;;;;;;;11.18;5.10;;;21.20;96.70;;;;;;4230117;28;20475;-56
2023/09/16 08:45:43;;;;;;;13.57;6.07;;;21.30;96.80;;;;;;4230615;28;20058;-53
2023/09/16 08:47:51;;;;;;;12.05;5.55;;;21.30;96.60;;;;;;4226012;28;20047;-53
2023/09/16 08:49:59;;;;;;;11.20;5.50;;;21.40;96.70;;;;;;4244947;27;20055;-54
2023/09/16 08:52:05;;;;;;;10.25;5.00;;;21.50;96.70;;;;;;4232023;27;20067;-53
2023/09/16 08:54:09;;;;;;;12.00;4.65;;;21.50;96.70;;;;;;4239086;27;20054;-52
2023/09/16 08:56:13;;;;;;;7.32;4.68;;;21.60;96.60;;;;;;4242817;27;20051;-53
2023/09/16 08:58:16;;;;;;;7.80;5.95;;;21.70;96.50;;;;;;4241896;27;20053;-53
2023/09/16 09:00:19;;;;;;;8.15;5.40;;;21.80;96.50;;;;;;4229506;28;20044;-53
2023/09/16 09:02:23;;;;;;;7.75;5.20;;;21.80;96.20;;;;;;4234589;27;20481;-54
2023/09/16 09:04:27;;;;;;;10.45;5.75;;;21.80;96.10;;;;;;4223033;28;20043;-57
2023/09/16 09:06:30;;;;;;;8.93;6.32;;;21.80;96.20;;;;;;4231757;28;20048;-54
2023/09/16 09:08:43;;;;;;;9.70;6.30;;;21.90;96.20;;;;;;4234605;28;20036;-52
2023/09/16 09:10:47;;;;;;;12.00;5.45;;;21.90;96.00;;;;;;4246872;28;20107;-53
2023/09/16 09:12:50;;;;;;;7.23;4.73;;;22.00;96.10;;;;;;4240897;28;20504;-53
2023/09/16 09:14:53;;;;;;;8.90;5.32;;;22.00;95.90;;;;;;4230618;28;20166;-54
2023/09/16 09:16:57;;;;;;;7.20;5.18;;;22.00;95.90;;;;;;4236091;28;20081;-53
2023/09/16 09:19:02;;;;;;;12.93;4.40;;;22.10;95.90;;;;;;4240175;28;20168;-53
2023/09/16 09:21:05;;;;;;;9.73;4.53;;;22.20;95.70;;;;;;4229636;28;20047;-53
2023/09/16 09:23:07;;;;;;;9.82;5.45;;;22.20;95.60;;;;;;4237115;28;20092;-54
2023/09/16 09:25:18;;;;;;;7.22;4.55;;;22.20;95.70;;;;;;4234915;28;20039;-55
2023/09/16 09:27:21;;;;;;;6.90;4.10;;;22.30;95.70;;;;;;4233599;28;20042;-52
2023/09/16 09:29:23;;;;;;;5.82;3.92;;;22.40;95.60;;;;;;4231240;28;20079;-53
2023/09/16 09:31:26;;;;;;;6.22;3.58;;;22.40;95.60;;;;;;4230049;28;20043;-54
2023/09/16 09:33:28;;;;;;;10.50;3.75;;;22.50;95.50;;;;;;4232811;28;20046;-54
2023/09/16 09:35:31;;;;;;;7.78;4.25;;;22.50;95.60;;;;;;4240976;28;20043;-54
2023/09/16 09:37:33;;;;;;;7.55;4.13;;;22.50;95.30;;;;;;4237766;28;20091;-55
2023/09/16 09:39:35;;;;;;;5.95;3.75;;;22.50;95.20;;;;;;4246231;28;20439;-54
2023/09/16 09:41:51;;;;;;;5.97;3.85;;;22.60;95.20;;;;;;4240430;28;20051;-53
2023/09/16 09:43:54;;;;;;;10.60;3.90;;;22.70;95.10;;;;;;4246275;28;20054;-54
2023/09/16 09:45:57;;;;;;;6.22;4.30;;;22.70;95.50;;;;;;4240293;28;20039;-53
2023/09/16 09:47:59;;;;;;;11.25;3.97;;;22.80;95.40;;;;;;4236356;28;20597;-54
2023/09/16 09:50:02;;;;;;;5.78;4.10;;;22.90;95.30;;;;;;4239374;28;20138;-58
2023/09/16 09:52:04;;;;;;;7.45;4.40;;;22.90;95.20;;;;;;4219661;28;20051;-54
2023/09/16 09:54:07;;;;;;;7.10;4.57;;;22.90;95.20;;;;;;4246223;28;20061;-59
2023/09/16 09:56:10;;;;;;;5.85;3.80;;;23.00;95.00;;;;;;4245689;28;20051;-54
2023/09/16 09:58:14;;;;;;;4.55;3.70;;;23.00;95.20;;;;;;4231854;28;20453;-53
2023/09/16 10:00:18;;;;;;;9.52;4.65;;;23.00;95.10;;;;;;4234143;28;20365;-53
2023/09/16 10:02:24;;;;;;;9.43;4.70;;;23.10;95.30;;;;;;4237069;28;20063;-58
2023/09/16 10:04:26;;;;;;;7.72;3.97;;;23.10;95.20;;;;;;4233634;28;20497;-53
2023/09/16 10:06:29;;;;;;;9.60;3.95;;;23.20;95.00;;;;;;4241053;28;20051;-53
2023/09/16 10:08:31;;;;;;;7.10;4.57;;;23.30;95.30;;;;;;4246032;28;20046;-54
2023/09/16 10:10:35;;;;;;;6.53;3.90;;;23.40;94.60;;;;;;4243624;27;20043;-54
2023/09/16 10:12:38;;;;;;;9.40;4.25;;;23.50;94.70;;;;;;4244017;27;20061;-53
2023/09/16 10:14:42;;;;;;;9.90;3.63;;;23.60;94.60;;;;;;4240967;27;20044;-54
2023/09/16 10:16:44;;;;;;;6.07;3.85;;;23.80;94.50;;;;;;4244507;27;20043;-54
2023/09/16 10:18:47;;;;;;;10.45;4.18;;;23.90;94.60;;;;;;4236546;27;20083;-54
2023/09/16 10:20:50;;;;;;;8.90;4.00;;;23.90;94.30;;;;;;4242477;27;20099;-54
2023/09/16 10:22:53;;;;;;;10.38;3.85;;;24.00;93.80;;;;;;4249389;27;20070;-54
2023/09/16 10:24:57;;;;;;;8.82;4.57;;;24.00;93.90;;;;;;4230491;28;20066;-54
2023/09/16 10:27:05;;;;;;;9.98;5.07;;;24.10;93.40;;;;;;4237462;27;20090;-55
2023/09/16 10:29:10;;;;;;;8.18;4.03;;;24.10;93.50;;;;;;4248205;27;20043;-57
2023/09/16 10:31:16;;;;;;;11.07;4.55;;;24.10;93.60;;;;;;4245650;27;20518;-54
2023/09/16 10:33:21;;;;;;;6.38;4.53;;;24.00;93.20;;;;;;4248805;27;20073;-53
2023/09/16 10:35:23;;;;;;;7.18;4.10;;;24.00;93.20;;;;;;4243579;27;20047;-54
2023/09/16 10:37:26;;;;;;;7.07;4.03;;;24.10;93.40;;;;;;4248540;27;20047;-54
2023/09/16 10:39:30;;;;;;;6.72;3.65;;;24.10;93.30;;;;;;4248944;27;20043;-52
2023/09/16 10:41:34;;;;;;;6.40;3.97;;;24.10;93.30;;;;;;4246657;27;20047;-54